Time;durP1;ratioP1;P1;durP2;ratioP2;P2;SDS_P1;SDS_P2;PMS_P1;PMS_P2;Temp;Humidity;BMP_temperature;BMP_pressure;BME280_temperature;BME280_humidity;BME280_pressure;Samples;Min_cycle;Max_cycle;Signal;HPM_P1;HPM_P2
2021/11/27 00:00:30;;;;;;;1.10;0.90;;;3.30;98.00;;;;;;5011890;28;20500;-62
2021/11/27 00:02:59;;;;;;;1.20;1.00;;;3.20;98.00;;;;;;5011558;28;20522;-62
2021/11/27 00:05:28;;;;;;;1.20;1.00;;;3.00;98.00;;;;;;5012073;28;20459;-62
2021/11/27 00:07:56;;;;;;;1.20;0.90;;;3.00;98.00;;;;;;5011733;28;20510;-63
2021/11/27 00:10:25;;;;;;;2.50;1.20;;;2.90;98.00;;;;;;5011838;28;20543;-62
2021/11/27 00:12:53;;;;;;;1.20;1.00;;;3.00;98.00;;;;;;5011705;28;20460;-62
2021/11/27 00:15:22;;;;;;;1.20;1.00;;;2.80;98.00;;;;;;5012068;28;20513;-62
2021/11/27 00:17:51;;;;;;;1.17;0.97;;;2.70;98.00;;;;;;5011613;28;20499;-63
2021/11/27 00:20:20;;;;;;;1.20;1.00;;;2.70;98.00;;;;;;5011728;28;20463;-62
2021/11/27 00:22:48;;;;;;;1.63;1.10;;;2.70;98.00;;;;;;5011687;28;20862;-62
2021/11/27 00:25:16;;;;;;;1.33;1.23;;;2.70;98.00;;;;;;5011544;28;20986;-62
2021/11/27 00:27:44;;;;;;;1.30;1.10;;;2.80;98.00;;;;;;5011298;28;20474;-63
2021/11/27 00:30:14;;;;;;;1.10;1.00;;;2.90;98.00;;;;;;5011418;28;20819;-62
2021/11/27 00:32:42;;;;;;;1.40;1.37;;;3.00;98.00;;;;;;5009829;28;20467;-62
2021/11/27 00:35:11;;;;;;;1.20;1.00;;;3.00;98.00;;;;;;5011241;28;20460;-62
2021/11/27 00:37:39;;;;;;;1.20;1.00;;;3.20;98.00;;;;;;5010827;28;20487;-62
2021/11/27 00:40:10;;;;;;;1.40;1.30;;;3.20;98.00;;;;;;5010120;28;20521;-63
2021/11/27 00:42:37;;;;;;;1.20;1.00;;;3.10;98.00;;;;;;5011508;28;20498;-62
2021/11/27 00:45:10;;;;;;;1.20;1.03;;;3.20;98.00;;;;;;5011165;28;20958;-63
2021/11/27 00:47:38;;;;;;;1.20;1.00;;;3.20;98.00;;;;;;5010970;28;20456;-62
2021/11/27 00:50:05;;;;;;;1.30;1.10;;;3.30;98.00;;;;;;5011350;28;20534;-62
2021/11/27 00:52:34;;;;;;;1.50;1.20;;;3.10;98.00;;;;;;5011122;28;20459;-62
2021/11/27 00:55:01;;;;;;;1.17;1.07;;;3.20;98.00;;;;;;5011020;28;20455;-62
2021/11/27 00:57:28;;;;;;;1.30;1.30;;;3.20;98.00;;;;;;5011039;28;20513;-62
2021/11/27 00:59:55;;;;;;;1.30;1.10;;;3.20;98.00;;;;;;5010973;28;20478;-62
2021/11/27 01:02:23;;;;;;;1.20;1.00;;;3.30;98.00;;;;;;5010900;28;20467;-62
2021/11/27 01:04:50;;;;;;;1.20;1.00;;;3.30;98.00;;;;;;5010839;28;20517;-62
2021/11/27 01:07:18;;;;;;;1.40;1.20;;;3.30;98.00;;;;;;5011019;28;20458;-62
2021/11/27 01:09:46;;;;;;;1.20;1.00;;;3.20;98.00;;;;;;5010912;28;20521;-62
2021/11/27 01:12:13;;;;;;;1.17;1.00;;;3.20;98.00;;;;;;5010968;28;20537;-62
2021/11/27 01:14:41;;;;;;;1.20;1.00;;;3.30;98.00;;;;;;5011052;28;20518;-62
2021/11/27 01:17:09;;;;;;;1.20;1.00;;;3.10;98.00;;;;;;5010772;28;20546;-62
2021/11/27 01:19:37;;;;;;;1.20;1.00;;;3.30;98.00;;;;;;5009766;28;20490;-63
2021/11/27 01:22:08;;;;;;;1.13;1.00;;;3.20;98.00;;;;;;5011024;28;21004;-62
2021/11/27 01:24:37;;;;;;;1.30;1.30;;;3.20;98.00;;;;;;5010971;28;21024;-62
2021/11/27 01:27:06;;;;;;;1.20;1.10;;;3.20;98.00;;;;;;5009529;28;20471;-62
2021/11/27 01:29:34;;;;;;;1.20;1.00;;;3.10;98.00;;;;;;5010892;28;20459;-62
2021/11/27 01:32:02;;;;;;;1.93;1.20;;;3.20;98.00;;;;;;5009438;28;20504;-62
2021/11/27 01:34:29;;;;;;;1.20;1.20;;;3.20;98.00;;;;;;5011024;28;20459;-62
2021/11/27 01:36:57;;;;;;;1.77;1.50;;;3.30;98.00;;;;;;5010929;28;20490;-62
2021/11/27 01:39:28;;;;;;;1.40;1.07;;;3.30;98.00;;;;;;5010813;28;20518;-62
2021/11/27 01:41:55;;;;;;;1.13;0.90;;;3.30;98.00;;;;;;5010812;28;20455;-63
2021/11/27 01:44:24;;;;;;;1.10;1.00;;;3.30;98.00;;;;;;5010660;28;20879;-62
2021/11/27 01:46:54;;;;;;;1.20;1.00;;;3.40;98.00;;;;;;5011111;28;21023;-62
2021/11/27 01:49:21;;;;;;;1.20;1.00;;;3.50;98.00;;;;;;5014259;28;20467;-63
2021/11/27 01:51:48;;;;;;;1.10;0.90;;;3.60;98.00;;;;;;5014406;28;20469;-62
2021/11/27 01:54:17;;;;;;;1.67;1.23;;;3.70;98.00;;;;;;5014194;28;20462;-62
2021/11/27 01:56:46;;;;;;;1.87;1.10;;;3.70;98.00;;;;;;5014160;28;20997;-62
2021/11/27 01:59:14;;;;;;;1.20;1.10;;;3.60;98.00;;;;;;5013905;28;20667;-62
2021/11/27 02:01:45;;;;;;;1.20;1.10;;;3.50;98.00;;;;;;5013873;28;20501;-62
2021/11/27 02:04:13;;;;;;;1.30;1.10;;;3.50;98.00;;;;;;5012658;28;20459;-62
2021/11/27 02:06:43;;;;;;;1.20;1.00;;;3.40;98.00;;;;;;5013953;28;20937;-62
2021/11/27 02:09:15;;;;;;;1.40;1.20;;;3.50;98.00;;;;;;5013472;28;20506;-63
2021/11/27 02:11:45;;;;;;;1.20;1.03;;;3.50;98.00;;;;;;5013806;28;20522;-62
2021/11/27 02:14:13;;;;;;;1.20;1.00;;;3.60;98.00;;;;;;5012558;28;20460;-62
2021/11/27 02:16:45;;;;;;;1.13;1.00;;;3.60;98.00;;;;;;5013564;28;20459;-62
2021/11/27 02:19:13;;;;;;;1.20;1.07;;;3.60;98.00;;;;;;5013757;28;20487;-62
2021/11/27 02:21:44;;;;;;;1.10;0.90;;;3.60;98.00;;;;;;5013598;28;20463;-62
2021/11/27 02:24:12;;;;;;;1.17;1.00;;;3.60;98.00;;;;;;5013878;28;20451;-62
2021/11/27 02:26:39;;;;;;;1.20;1.00;;;3.70;98.00;;;;;;5012310;28;20456;-62
2021/11/27 02:29:09;;;;;;;1.10;1.00;;;3.70;98.00;;;;;;5012292;28;20684;-63
2021/11/27 02:31:38;;;;;;;1.20;0.90;;;3.80;98.00;;;;;;5013342;28;20451;-62
2021/11/27 02:34:06;;;;;;;1.17;1.00;;;3.80;98.00;;;;;;5012442;28;20790;-62
2021/11/27 02:36:34;;;;;;;1.17;1.07;;;3.90;98.00;;;;;;5011960;28;20459;-62
2021/11/27 02:39:06;;;;;;;1.20;1.00;;;3.90;98.00;;;;;;5013290;28;20534;-62
2021/11/27 02:41:33;;;;;;;1.20;1.17;;;4.00;98.00;;;;;;5013263;28;20479;-62
2021/11/27 02:44:02;;;;;;;1.40;1.10;;;4.00;98.00;;;;;;5013233;28;20455;-62
2021/11/27 02:46:29;;;;;;;1.20;1.10;;;4.00;98.00;;;;;;5013197;28;20467;-62
2021/11/27 02:48:56;;;;;;;1.50;1.27;;;4.20;98.00;;;;;;5013191;28;20459;-62
2021/11/27 02:51:24;;;;;;;1.50;1.13;;;4.20;98.00;;;;;;5013081;28;20525;-62
2021/11/27 02:53:51;;;;;;;1.20;1.00;;;4.10;98.00;;;;;;5012089;28;21016;-62
2021/11/27 02:56:19;;;;;;;1.20;1.00;;;4.00;98.00;;;;;;5013050;28;20456;-62
2021/11/27 02:58:49;;;;;;;1.20;1.00;;;3.90;98.00;;;;;;5011116;28;20487;-62
2021/11/27 03:01:16;;;;;;;1.20;1.00;;;3.90;98.00;;;;;;5012738;28;20479;-63
2021/11/27 03:03:43;;;;;;;1.20;1.10;;;3.90;98.00;;;;;;5012811;28;20522;-62
2021/11/27 03:06:12;;;;;;;1.30;1.00;;;4.00;98.00;;;;;;5012673;28;20471;-62
2021/11/27 03:08:40;;;;;;;1.20;1.00;;;3.90;98.00;;;;;;5012896;28;21139;-62
2021/11/27 03:11:08;;;;;;;1.20;1.00;;;3.90;98.00;;;;;;5012590;28;20514;-62
2021/11/27 03:13:39;;;;;;;1.20;1.00;;;3.90;98.00;;;;;;5012719;28;20875;-62
2021/11/27 03:16:07;;;;;;;1.53;1.23;;;3.90;98.00;;;;;;5012510;28;20459;-62
2021/11/27 03:18:34;;;;;;;1.13;0.97;;;3.90;98.00;;;;;;5012564;28;20484;-63
2021/11/27 03:21:01;;;;;;;1.30;1.30;;;3.90;98.00;;;;;;5011217;28;20467;-62
2021/11/27 03:23:30;;;;;;;1.10;0.90;;;4.00;98.00;;;;;;5012466;28;20460;-62
2021/11/27 03:25:57;;;;;;;2.73;1.13;;;4.00;98.00;;;;;;5012467;28;20487;-62
2021/11/27 03:28:25;;;;;;;1.20;1.00;;;4.00;98.00;;;;;;5012301;28;20468;-62
2021/11/27 03:30:54;;;;;;;1.53;1.10;;;4.00;98.00;;;;;;5012120;28;20445;-62
2021/11/27 03:33:22;;;;;;;1.20;1.00;;;4.00;98.00;;;;;;5012368;28;20460;-62
2021/11/27 03:35:49;;;;;;;1.13;1.00;;;4.00;98.00;;;;;;5012293;28;20455;-62
2021/11/27 03:38:16;;;;;;;1.30;1.20;;;4.00;98.00;;;;;;5012100;28;20464;-63
2021/11/27 03:40:44;;;;;;;1.20;1.00;;;4.00;98.00;;;;;;5010901;28;20534;-62
2021/11/27 03:43:15;;;;;;;1.20;1.00;;;4.00;98.00;;;;;;5011986;28;20456;-62
2021/11/27 03:45:43;;;;;;;1.13;1.00;;;4.10;98.00;;;;;;5012001;28;20448;-62
2021/11/27 03:48:13;;;;;;;1.20;1.00;;;4.10;98.00;;;;;;5012104;28;20463;-62
2021/11/27 03:50:44;;;;;;;1.10;1.00;;;4.20;98.00;;;;;;5012129;28;20491;-63
2021/11/27 03:53:14;;;;;;;1.20;1.07;;;4.20;98.00;;;;;;5012321;28;20472;-62
2021/11/27 03:55:41;;;;;;;1.73;1.30;;;4.20;98.00;;;;;;5012093;28;20869;-63
2021/11/27 03:58:09;;;;;;;1.60;1.33;;;4.30;98.00;;;;;;5011945;28;20499;-63
2021/11/27 04:00:36;;;;;;;1.30;1.30;;;4.30;98.00;;;;;;5013105;28;20875;-62
2021/11/27 04:03:05;;;;;;;1.20;1.10;;;4.40;98.00;;;;;;5011930;28;20468;-62
2021/11/27 04:05:41;;;;;;;1.20;1.00;;;4.30;98.00;;;;;;5013226;28;20452;-63
2021/11/27 04:08:08;;;;;;;1.40;1.10;;;4.40;98.00;;;;;;5011817;28;20466;-62
2021/11/27 04:10:36;;;;;;;1.50;1.10;;;4.30;98.00;;;;;;5011219;28;20460;-62
2021/11/27 04:13:03;;;;;;;1.10;1.00;;;4.20;98.00;;;;;;5011543;28;20465;-62
2021/11/27 04:15:31;;;;;;;1.20;1.00;;;4.20;98.00;;;;;;5011769;28;20470;-62
2021/11/27 04:17:58;;;;;;;1.40;1.13;;;4.20;98.00;;;;;;5011474;28;20457;-62
2021/11/27 04:20:25;;;;;;;1.20;0.90;;;4.20;98.00;;;;;;5011825;28;20546;-62
2021/11/27 04:22:54;;;;;;;1.20;1.17;;;4.30;98.00;;;;;;5011771;28;20513;-62
2021/11/27 04:25:21;;;;;;;1.10;0.90;;;4.20;98.00;;;;;;5011729;28;20468;-63
2021/11/27 04:27:49;;;;;;;1.20;1.00;;;4.10;98.00;;;;;;5011668;28;20809;-62
2021/11/27 04:30:19;;;;;;;1.20;1.00;;;4.10;98.00;;;;;;5011396;28;20456;-62
2021/11/27 04:32:48;;;;;;;1.10;1.00;;;4.10;98.00;;;;;;5011518;28;20952;-62
2021/11/27 04:35:16;;;;;;;1.17;1.00;;;4.10;98.00;;;;;;5011772;28;20492;-62
2021/11/27 04:37:43;;;;;;;1.20;0.90;;;4.20;98.00;;;;;;5011310;28;20516;-62
2021/11/27 04:40:13;;;;;;;1.20;1.00;;;4.20;98.00;;;;;;5009955;28;20491;-62
2021/11/27 04:42:41;;;;;;;1.20;1.00;;;4.30;98.00;;;;;;5011113;28;20506;-63
2021/11/27 04:45:09;;;;;;;1.20;1.00;;;4.30;98.00;;;;;;5011288;28;20513;-62
2021/11/27 04:47:37;;;;;;;1.40;1.10;;;4.40;98.00;;;;;;5011142;28;20969;-63
2021/11/27 04:50:06;;;;;;;1.20;0.90;;;4.40;98.00;;;;;;5011329;28;20527;-62
2021/11/27 04:52:33;;;;;;;1.20;1.00;;;4.50;98.00;;;;;;5011060;28;20852;-62
2021/11/27 04:55:00;;;;;;;1.20;1.00;;;4.50;98.00;;;;;;5011082;28;20456;-63
2021/11/27 04:57:28;;;;;;;4.03;1.37;;;4.50;98.00;;;;;;5011107;28;20469;-62
2021/11/27 04:59:56;;;;;;;1.20;0.90;;;4.50;98.00;;;;;;5011039;28;20487;-63
2021/11/27 05:02:23;;;;;;;1.20;1.10;;;4.40;98.00;;;;;;5010807;28;20467;-62
2021/11/27 05:04:51;;;;;;;1.20;1.10;;;4.40;98.00;;;;;;5011227;28;20460;-62
2021/11/27 05:07:18;;;;;;;1.13;0.90;;;4.40;98.00;;;;;;5011069;28;20457;-62
2021/11/27 05:09:45;;;;;;;1.50;1.17;;;4.30;98.00;;;;;;5011119;28;20464;-62
2021/11/27 05:12:12;;;;;;;1.20;1.00;;;4.30;98.00;;;;;;5010982;28;20468;-62
2021/11/27 05:14:41;;;;;;;1.20;1.00;;;4.30;98.00;;;;;;5010851;28;20456;-62
2021/11/27 05:17:08;;;;;;;1.20;0.90;;;4.40;98.00;;;;;;5010644;28;20456;-63
2021/11/27 05:19:36;;;;;;;1.20;1.03;;;4.40;98.00;;;;;;5011047;28;20497;-62
2021/11/27 05:22:04;;;;;;;1.20;1.00;;;4.50;98.00;;;;;;5011492;28;20956;-62
2021/11/27 05:24:31;;;;;;;1.20;1.10;;;4.60;98.00;;;;;;5014781;28;20472;-62
2021/11/27 05:26:59;;;;;;;4.70;1.33;;;4.60;98.00;;;;;;5014509;28;20519;-62
2021/11/27 05:29:27;;;;;;;1.20;1.00;;;4.60;98.00;;;;;;5014430;28;20470;-62
2021/11/27 05:32:03;;;;;;;1.30;1.00;;;4.60;98.00;;;;;;5013352;28;20542;-62
2021/11/27 05:34:34;;;;;;;1.30;1.13;;;4.60;98.00;;;;;;5014628;28;20455;-62
2021/11/27 05:37:03;;;;;;;1.20;1.00;;;4.50;98.00;;;;;;5014420;28;20544;-62
2021/11/27 05:39:30;;;;;;;1.20;1.00;;;4.60;98.00;;;;;;5014577;28;20484;-63
2021/11/27 05:41:58;;;;;;;1.20;0.97;;;4.60;98.00;;;;;;5014812;28;20464;-62
2021/11/27 05:44:25;;;;;;;1.60;1.10;;;4.60;98.00;;;;;;5014786;28;20458;-62
2021/11/27 05:46:53;;;;;;;1.20;1.00;;;4.60;98.00;;;;;;5014535;28;20470;-62
2021/11/27 05:49:21;;;;;;;1.20;1.00;;;4.60;98.00;;;;;;5014303;28;20456;-62
2021/11/27 05:51:48;;;;;;;1.17;0.90;;;4.60;98.00;;;;;;5014446;28;20518;-62
2021/11/27 05:54:15;;;;;;;1.20;0.90;;;4.60;98.00;;;;;;5012968;28;20464;-62
2021/11/27 05:56:42;;;;;;;1.30;1.10;;;4.70;98.00;;;;;;5012882;28;20460;-62
2021/11/27 05:59:09;;;;;;;1.53;1.40;;;4.70;98.00;;;;;;5013975;28;20483;-62
2021/11/27 06:01:37;;;;;;;1.20;1.00;;;4.80;98.00;;;;;;5013913;28;20530;-62
2021/11/27 06:04:04;;;;;;;1.20;1.00;;;4.80;98.00;;;;;;5013944;28;20460;-62
2021/11/27 06:06:33;;;;;;;1.20;1.10;;;4.60;98.00;;;;;;5013991;28;20734;-62
2021/11/27 06:09:00;;;;;;;1.30;1.20;;;4.50;98.00;;;;;;5014025;28;20464;-62
2021/11/27 06:11:27;;;;;;;1.20;0.90;;;4.40;98.00;;;;;;5013980;28;20455;-63
2021/11/27 06:13:58;;;;;;;1.20;1.10;;;4.40;98.00;;;;;;5013925;28;20949;-62
2021/11/27 06:16:25;;;;;;;1.20;1.13;;;4.30;98.00;;;;;;5013627;28;20464;-62
2021/11/27 06:18:53;;;;;;;1.20;1.00;;;4.30;98.00;;;;;;5013620;28;20460;-62
2021/11/27 06:21:21;;;;;;;1.30;1.10;;;4.30;98.00;;;;;;5013474;28;20468;-62
2021/11/27 06:23:51;;;;;;;1.20;0.90;;;4.30;98.00;;;;;;5013593;28;20452;-62
2021/11/27 06:26:19;;;;;;;1.40;1.20;;;4.60;98.00;;;;;;5013581;28;20808;-62
2021/11/27 06:28:46;;;;;;;1.20;0.93;;;4.60;98.00;;;;;;5013653;28;20451;-63
2021/11/27 06:31:13;;;;;;;1.20;1.00;;;4.50;98.00;;;;;;5013414;28;20468;-62
2021/11/27 06:33:40;;;;;;;1.17;1.00;;;4.30;98.00;;;;;;5012461;28;20467;-62
2021/11/27 06:36:09;;;;;;;1.20;1.00;;;4.30;98.00;;;;;;5013417;28;20460;-63
2021/11/27 06:38:36;;;;;;;1.10;1.00;;;4.30;98.00;;;;;;5013306;28;20533;-62
2021/11/27 06:41:07;;;;;;;1.67;1.10;;;4.30;98.00;;;;;;5013254;28;20485;-62
2021/11/27 06:43:34;;;;;;;1.20;1.00;;;4.30;98.00;;;;;;5013212;28;20465;-62
2021/11/27 06:46:02;;;;;;;1.30;1.20;;;4.20;98.00;;;;;;5013174;28;20514;-62
2021/11/27 06:48:30;;;;;;;1.20;1.00;;;4.20;98.00;;;;;;5013210;28;20460;-62
2021/11/27 06:50:57;;;;;;;1.20;1.00;;;4.30;98.00;;;;;;5013094;28;20535;-62
2021/11/27 06:53:24;;;;;;;1.30;1.20;;;4.30;98.00;;;;;;5012956;28;20946;-63
2021/11/27 06:55:52;;;;;;;1.20;0.97;;;4.30;98.00;;;;;;5013357;28;20833;-62
2021/11/27 06:58:20;;;;;;;1.20;1.00;;;4.40;98.00;;;;;;5013147;28;20871;-63
2021/11/27 07:00:47;;;;;;;1.20;1.10;;;4.40;98.00;;;;;;5011908;28;20720;-63
2021/11/27 07:03:14;;;;;;;1.20;1.10;;;4.40;98.00;;;;;;5012952;28;20525;-63
2021/11/27 07:05:41;;;;;;;1.20;1.00;;;4.40;98.00;;;;;;5013266;28;20495;-63
2021/11/27 07:08:08;;;;;;;1.20;0.90;;;4.40;98.00;;;;;;5012794;28;20877;-62
2021/11/27 07:10:36;;;;;;;1.20;1.00;;;4.40;98.00;;;;;;5012864;28;20534;-62
2021/11/27 07:13:11;;;;;;;1.37;1.20;;;4.40;98.00;;;;;;5012700;28;20469;-63
2021/11/27 07:15:39;;;;;;;1.20;1.00;;;4.40;98.00;;;;;;5013034;28;21044;-63
2021/11/27 07:18:06;;;;;;;1.30;1.10;;;4.50;98.00;;;;;;5012744;28;20893;-63
2021/11/27 07:20:33;;;;;;;1.20;1.20;;;4.50;98.00;;;;;;5012692;28;20990;-63
2021/11/27 07:23:01;;;;;;;1.20;0.97;;;4.60;98.00;;;;;;5011105;28;20474;-62
2021/11/27 07:25:30;;;;;;;1.20;1.00;;;4.60;98.00;;;;;;5012541;28;20555;-63
2021/11/27 07:27:57;;;;;;;1.20;1.00;;;4.60;98.00;;;;;;5012610;28;20957;-62
2021/11/27 07:30:24;;;;;;;1.20;1.00;;;4.60;98.00;;;;;;5012184;28;20456;-62
2021/11/27 07:32:52;;;;;;;1.17;0.90;;;4.60;98.00;;;;;;5012418;28;20471;-62
2021/11/27 07:35:20;;;;;;;1.20;1.00;;;4.80;98.00;;;;;;5012284;28;20465;-62
2021/11/27 07:37:47;;;;;;;1.20;0.90;;;4.90;98.00;;;;;;5011029;28;20476;-62
2021/11/27 07:40:14;;;;;;;1.20;1.10;;;4.90;98.00;;;;;;5012211;28;20522;-63
2021/11/27 07:42:41;;;;;;;1.20;1.00;;;4.90;98.00;;;;;;5012173;28;20464;-62
2021/11/27 07:45:17;;;;;;;1.40;1.00;;;4.90;98.00;;;;;;5011728;28;20466;-63
2021/11/27 07:47:44;;;;;;;1.20;1.00;;;5.00;98.00;;;;;;5012022;28;20460;-63
2021/11/27 07:50:15;;;;;;;1.20;1.00;;;5.10;98.00;;;;;;5011868;28;20457;-63
2021/11/27 07:52:43;;;;;;;1.20;1.00;;;5.10;98.00;;;;;;5011846;28;20981;-62
2021/11/27 07:55:10;;;;;;;1.20;1.00;;;5.10;98.00;;;;;;5011888;28;20521;-63
2021/11/27 07:57:37;;;;;;;1.20;1.00;;;5.00;98.00;;;;;;5012060;28;20466;-62
2021/11/27 08:00:06;;;;;;;1.20;1.00;;;5.10;98.00;;;;;;5011905;28;20558;-63
2021/11/27 08:02:33;;;;;;;1.20;1.00;;;5.10;98.00;;;;;;5011982;28;21039;-63
2021/11/27 08:05:00;;;;;;;1.20;1.00;;;5.20;98.00;;;;;;5011634;28;20465;-62
2021/11/27 08:07:35;;;;;;;1.20;0.90;;;5.20;98.00;;;;;;5012086;28;20952;-62
2021/11/27 08:10:02;;;;;;;1.20;1.00;;;5.10;98.00;;;;;;5011530;28;20531;-63
2021/11/27 08:12:29;;;;;;;1.20;1.00;;;5.10;98.00;;;;;;5011797;28;20502;-62
2021/11/27 08:14:56;;;;;;;1.20;1.00;;;5.20;98.00;;;;;;5011716;28;20528;-62
2021/11/27 08:17:24;;;;;;;1.20;1.00;;;5.30;98.00;;;;;;5011650;28;20528;-62
2021/11/27 08:19:51;;;;;;;1.20;1.00;;;5.30;98.00;;;;;;5011448;28;20972;-62
2021/11/27 08:22:21;;;;;;;1.20;0.90;;;5.30;98.00;;;;;;5010431;28;20510;-62
2021/11/27 08:24:51;;;;;;;1.30;1.10;;;5.30;98.00;;;;;;5010076;28;20465;-63
2021/11/27 08:27:19;;;;;;;1.10;0.90;;;5.20;98.00;;;;;;5010375;28;20532;-63
2021/11/27 08:29:46;;;;;;;1.20;1.00;;;5.30;98.00;;;;;;5011486;28;20483;-63
2021/11/27 08:32:13;;;;;;;1.17;1.00;;;5.40;98.00;;;;;;5011456;28;20988;-62
2021/11/27 08:34:40;;;;;;;1.50;1.40;;;5.30;98.00;;;;;;5011690;28;20464;-62
2021/11/27 08:37:08;;;;;;;1.20;1.00;;;5.30;98.00;;;;;;5011599;28;20468;-63
2021/11/27 08:39:35;;;;;;;1.20;0.93;;;5.30;98.00;;;;;;5011499;28;20457;-62
2021/11/27 08:42:04;;;;;;;1.20;1.00;;;5.30;98.00;;;;;;5010732;28;20453;-62
2021/11/27 08:44:31;;;;;;;1.20;1.00;;;5.50;98.00;;;;;;5008624;28;20464;-63
2021/11/27 08:46:58;;;;;;;1.20;1.00;;;5.70;98.00;;;;;;5009391;28;20460;-64
2021/11/27 08:49:26;;;;;;;1.20;0.93;;;5.80;98.00;;;;;;5009107;28;20518;-63
2021/11/27 08:51:53;;;;;;;1.20;0.90;;;5.80;98.00;;;;;;5009360;28;20463;-63
2021/11/27 08:54:20;;;;;;;1.30;1.20;;;6.00;98.00;;;;;;5009506;28;20509;-63
2021/11/27 08:56:47;;;;;;;1.20;1.00;;;6.10;98.00;;;;;;5009393;28;20954;-63
2021/11/27 08:59:15;;;;;;;1.20;1.00;;;6.20;98.00;;;;;;5012737;28;20463;-61
2021/11/27 09:01:43;;;;;;;1.20;1.00;;;6.20;98.00;;;;;;5012401;28;20502;-62
2021/11/27 09:04:13;;;;;;;1.20;0.90;;;6.30;98.00;;;;;;5012655;28;20462;-62
2021/11/27 09:06:40;;;;;;;1.20;0.90;;;6.40;98.00;;;;;;5013027;28;20483;-63
2021/11/27 09:09:08;;;;;;;1.20;0.90;;;6.50;98.00;;;;;;5013375;28;20456;-62
2021/11/27 09:11:35;;;;;;;1.20;1.00;;;6.60;98.00;;;;;;5012823;28;20515;-62
2021/11/27 09:14:04;;;;;;;1.20;1.00;;;6.70;98.00;;;;;;5013291;28;21039;-62
2021/11/27 09:16:32;;;;;;;1.20;1.00;;;6.80;98.00;;;;;;5011892;28;20866;-62
2021/11/27 09:19:02;;;;;;;1.20;0.90;;;6.70;98.00;;;;;;5013151;28;20819;-62
2021/11/27 09:21:30;;;;;;;1.20;1.00;;;6.70;98.00;;;;;;5012751;28;21084;-62
2021/11/27 09:23:57;;;;;;;1.20;1.00;;;6.80;98.00;;;;;;5011897;28;21022;-62
2021/11/27 09:26:25;;;;;;;1.20;1.00;;;6.70;98.00;;;;;;5012861;28;20520;-62
2021/11/27 09:28:52;;;;;;;1.20;1.00;;;6.80;98.00;;;;;;5013272;28;20452;-62
2021/11/27 09:31:20;;;;;;;1.20;1.00;;;6.80;98.00;;;;;;5013154;28;21005;-62
2021/11/27 09:33:49;;;;;;;1.20;1.00;;;6.90;98.00;;;;;;5012574;28;20465;-62
2021/11/27 09:36:18;;;;;;;1.20;1.00;;;7.00;98.00;;;;;;5010774;28;20517;-62
2021/11/27 09:38:45;;;;;;;1.20;1.00;;;7.10;98.00;;;;;;5011636;28;20467;-62
2021/11/27 09:41:17;;;;;;;1.20;1.00;;;7.20;98.00;;;;;;5013039;28;21060;-63
2021/11/27 09:43:46;;;;;;;1.20;1.00;;;7.20;98.00;;;;;;5012303;28;20550;-63
2021/11/27 09:46:14;;;;;;;1.20;1.00;;;7.30;98.00;;;;;;5012323;28;20516;-62
2021/11/27 09:48:46;;;;;;;1.20;1.03;;;7.40;98.00;;;;;;5012720;28;20924;-63
2021/11/27 09:51:15;;;;;;;1.20;0.90;;;7.30;98.00;;;;;;5012484;28;20458;-62
2021/11/27 09:53:45;;;;;;;1.20;0.90;;;7.40;98.00;;;;;;5012283;28;20453;-63
2021/11/27 09:56:14;;;;;;;1.20;0.93;;;7.60;98.00;;;;;;5012139;28;20456;-63
2021/11/27 09:58:41;;;;;;;1.20;0.90;;;7.70;98.00;;;;;;5012003;28;20466;-62
2021/11/27 10:01:08;;;;;;;1.20;1.00;;;7.70;98.00;;;;;;5012148;28;20496;-62
2021/11/27 10:03:40;;;;;;;1.20;1.20;;;7.80;98.00;;;;;;5012299;28;20840;-63
2021/11/27 10:06:09;;;;;;;1.20;0.90;;;7.80;98.00;;;;;;5011958;28;20458;-63
2021/11/27 10:08:37;;;;;;;1.33;1.10;;;7.90;98.00;;;;;;5011846;28;20509;-63
2021/11/27 10:11:15;;;;;;;1.20;1.00;;;8.10;98.00;;;;;;5010410;28;20883;-63
2021/11/27 10:13:42;;;;;;;1.20;1.00;;;8.00;98.00;;;;;;5010329;28;20513;-63
2021/11/27 10:16:10;;;;;;;1.20;1.00;;;8.10;98.00;;;;;;5012040;28;20462;-63
2021/11/27 10:18:37;;;;;;;1.33;1.03;;;8.30;98.00;;;;;;5011209;28;20454;-62
2021/11/27 10:21:18;;;;;;;1.20;1.00;;;8.40;98.00;;;;;;5011482;28;20498;-62
2021/11/27 10:23:49;;;;;;;1.20;1.00;;;8.40;98.00;;;;;;5010674;28;20514;-63
2021/11/27 10:26:33;;;;;;;1.20;1.00;;;8.30;98.00;;;;;;5011996;28;20486;-63
2021/11/27 10:29:14;;;;;;;1.20;1.00;;;8.10;98.00;;;;;;5011730;28;20463;-63
2021/11/27 10:31:42;;;;;;;1.20;0.90;;;7.90;98.00;;;;;;5011535;28;20460;-62
2021/11/27 10:34:15;;;;;;;1.20;1.00;;;7.90;98.00;;;;;;5011517;28;20464;-63
2021/11/27 10:36:42;;;;;;;1.20;1.00;;;7.80;98.00;;;;;;5011583;28;20510;-62
2021/11/27 10:39:10;;;;;;;1.20;1.00;;;7.90;98.00;;;;;;5011454;28;20454;-62
2021/11/27 10:41:54;;;;;;;1.20;1.00;;;7.90;98.00;;;;;;5011552;28;20514;-63
2021/11/27 10:44:26;;;;;;;1.20;1.00;;;7.90;98.00;;;;;;5010357;28;20464;-63
2021/11/27 10:46:54;;;;;;;1.20;1.00;;;7.90;98.00;;;;;;5011303;28;20471;-63
2021/11/27 10:49:27;;;;;;;1.20;0.90;;;7.90;98.00;;;;;;5009290;28;20546;-63
2021/11/27 10:52:09;;;;;;;1.20;1.00;;;7.90;98.00;;;;;;5011587;28;20469;-63
2021/11/27 10:54:45;;;;;;;1.20;0.90;;;7.80;98.00;;;;;;5011634;28;20804;-63
2021/11/27 10:57:31;;;;;;;1.20;1.00;;;7.70;98.00;;;;;;5003484;28;20462;-62
2021/11/27 11:00:06;;;;;;;1.20;0.90;;;7.70;98.00;;;;;;5010603;28;20544;-62
2021/11/27 11:02:35;;;;;;;1.20;0.90;;;7.70;98.00;;;;;;5011177;28;21208;-62
2021/11/27 11:05:07;;;;;;;1.20;1.10;;;7.70;98.00;;;;;;5010574;28;21949;-62
2021/11/27 11:07:34;;;;;;;1.20;1.00;;;7.60;98.00;;;;;;5010980;28;20465;-63
2021/11/27 11:10:13;;;;;;;1.20;1.00;;;7.70;98.00;;;;;;5010506;28;20971;-63
2021/11/27 11:12:42;;;;;;;1.20;1.00;;;7.60;98.00;;;;;;5010845;28;20462;-62
2021/11/27 11:15:13;;;;;;;1.20;1.00;;;7.50;98.00;;;;;;5010961;28;20521;-62
2021/11/27 11:17:41;;;;;;;1.20;1.00;;;7.50;98.00;;;;;;5010403;28;20477;-63
2021/11/27 11:20:16;;;;;;;1.20;0.90;;;7.50;98.00;;;;;;5010263;28;20498;-63
2021/11/27 11:23:06;;;;;;;1.20;1.00;;;7.60;98.00;;;;;;5010653;28;20495;-63
2021/11/27 11:25:42;;;;;;;1.30;1.10;;;7.60;98.00;;;;;;5010779;28;20466;-63
2021/11/27 11:28:15;;;;;;;1.20;1.00;;;7.60;98.00;;;;;;5010537;28;20949;-64
2021/11/27 11:30:45;;;;;;;1.20;1.00;;;7.50;98.00;;;;;;5010844;28;20965;-64
2021/11/27 11:33:15;;;;;;;1.20;1.00;;;7.50;98.00;;;;;;5002352;28;20883;-63
2021/11/27 11:35:43;;;;;;;1.20;1.00;;;7.40;98.00;;;;;;5002517;28;21001;-63
2021/11/27 11:38:12;;;;;;;1.20;1.00;;;7.40;98.00;;;;;;5010218;28;20522;-63
2021/11/27 11:40:42;;;;;;;1.20;0.93;;;7.40;98.00;;;;;;5010166;28;21169;-63
2021/11/27 11:43:10;;;;;;;1.30;1.03;;;7.40;98.00;;;;;;5009830;28;20464;-63
2021/11/27 11:45:38;;;;;;;1.20;0.90;;;7.30;98.00;;;;;;5010260;28;20855;-63
2021/11/27 11:48:08;;;;;;;1.20;1.00;;;7.30;98.00;;;;;;5002572;28;20518;-63
2021/11/27 11:50:40;;;;;;;1.20;0.90;;;7.30;98.00;;;;;;5008457;28;20948;-62
2021/11/27 11:53:11;;;;;;;1.20;0.97;;;7.30;98.00;;;;;;5002212;28;20460;-64
2021/11/27 11:55:51;;;;;;;2.33;1.30;;;7.20;98.00;;;;;;5010161;28;20462;-63
2021/11/27 11:58:29;;;;;;;1.20;1.00;;;7.10;98.00;;;;;;5009981;28;20561;-62
2021/11/27 12:01:00;;;;;;;1.20;1.10;;;7.00;98.00;;;;;;5008801;28;20538;-62
2021/11/27 12:03:31;;;;;;;1.30;1.10;;;6.80;98.00;;;;;;5009982;28;20473;-63
2021/11/27 12:06:14;;;;;;;1.20;0.93;;;6.60;98.00;;;;;;5009797;28;20466;-62
2021/11/27 12:09:15;;;;;;;1.20;0.90;;;6.60;98.00;;;;;;5009876;28;20463;-63
2021/11/27 12:12:20;;;;;;;1.20;1.00;;;6.60;98.00;;;;;;5010082;28;20571;-63
2021/11/27 12:14:59;;;;;;;1.20;1.00;;;6.60;98.00;;;;;;5009733;28;20464;-62
2021/11/27 12:17:27;;;;;;;1.20;1.00;;;6.60;98.00;;;;;;5009786;28;20466;-62
2021/11/27 12:19:56;;;;;;;1.20;1.00;;;6.70;98.00;;;;;;5009344;28;20463;-62
2021/11/27 12:22:42;;;;;;;1.20;0.97;;;6.60;98.00;;;;;;5009747;28;20497;-62
2021/11/27 12:25:28;;;;;;;1.20;1.00;;;6.70;98.00;;;;;;5009823;28;20461;-64
2021/11/27 12:28:23;;;;;;;1.20;1.00;;;6.80;98.00;;;;;;5002533;28;20470;-62
2021/11/27 12:31:06;;;;;;;1.20;1.00;;;6.90;98.00;;;;;;5009300;28;20549;-63
2021/11/27 12:33:48;;;;;;;1.20;1.00;;;6.90;98.00;;;;;;5008427;28;20463;-62
2021/11/27 12:36:48;;;;;;;1.20;1.03;;;6.90;98.00;;;;;;5008805;28;20972;-62
2021/11/27 12:39:40;;;;;;;1.20;1.00;;;7.00;98.00;;;;;;5005694;28;20474;-63
2021/11/27 12:42:23;;;;;;;1.20;1.00;;;6.90;98.00;;;;;;5007601;28;20553;-63
2021/11/27 12:44:51;;;;;;;1.20;1.00;;;6.80;98.00;;;;;;5009117;28;20467;-63
2021/11/27 12:47:39;;;;;;;1.20;1.00;;;6.80;98.00;;;;;;5008900;28;20470;-63
2021/11/27 12:50:21;;;;;;;1.20;1.00;;;6.70;98.00;;;;;;5007041;28;20463;-62
2021/11/27 12:52:49;;;;;;;1.20;0.90;;;6.70;98.00;;;;;;5008721;28;20917;-62
2021/11/27 12:55:40;;;;;;;1.20;1.00;;;6.70;98.00;;;;;;5009066;28;20903;-63
2021/11/27 12:58:28;;;;;;;1.20;1.00;;;6.70;98.00;;;;;;5008788;28;20475;-63
2021/11/27 13:00:55;;;;;;;1.20;0.90;;;6.70;98.00;;;;;;5008549;28;20460;-62
2021/11/27 13:03:24;;;;;;;1.20;0.90;;;6.40;98.00;;;;;;5008596;28;20472;-63
2021/11/27 13:05:51;;;;;;;1.20;0.93;;;6.50;98.00;;;;;;5008867;28;20799;-63
2021/11/27 13:08:27;;;;;;;1.20;1.00;;;6.50;98.00;;;;;;5008608;28;20458;-63
2021/11/27 13:10:55;;;;;;;1.20;0.93;;;6.60;98.00;;;;;;5008835;28;20460;-63